Time;durP1;ratioP1;P1;durP2;ratioP2;P2;SDS_P1;SDS_P2;PMS_P1;PMS_P2;Temp;Humidity;BMP_temperature;BMP_pressure;BME280_temperature;BME280_humidity;BME280_pressure;Samples;Min_cycle;Max_cycle;Signal;HPM_P1;HPM_P2
2022/02/02 05:44:29;;;;;;;73.35;31.00;;;;;;;-1.36;92.93;99267.88;1691210;83;21093;-47
2022/02/02 05:51:58;;;;;;;45.15;17.30;;;;;;;-1.16;91.95;99269.78;1675379;84;21068;-40
2022/02/02 05:54:25;;;;;;;32.10;16.42;;;;;;;-1.12;91.62;99266.46;1693962;83;21327;-39
2022/02/02 05:56:54;;;;;;;31.73;16.32;;;;;;;-1.12;91.23;99258.76;1682009;83;21132;-48
2022/02/02 05:59:24;;;;;;;38.98;17.80;;;;;;;-1.16;91.08;99256.95;1678210;83;21328;-48
2022/02/02 06:02:00;;;;;;;30.70;15.60;;;;;;;-1.22;90.91;99267.00;1682419;84;21080;-39
2022/02/02 06:04:28;;;;;;;33.20;18.17;;;;;;;-1.23;91.19;99265.68;1686130;84;21881;-42
2022/02/02 06:06:57;;;;;;;40.43;19.60;;;;;;;-1.23;91.46;99267.83;1680423;83;21096;-47
2022/02/02 06:09:28;;;;;;;38.85;18.82;;;;;;;-1.19;91.60;99277.80;1681661;83;21108;-48
2022/02/02 06:11:53;;;;;;;45.75;20.50;;;;;;;-1.14;91.99;99270.69;1680203;84;21647;-45
2022/02/02 06:14:26;;;;;;;47.90;17.80;;;;;;;-1.05;92.01;99274.34;1646092;85;21054;-46
2022/02/02 06:17:13;;;;;;;50.83;19.40;;;;;;;-0.99;91.99;99274.11;1678694;83;21599;-47
2022/02/02 06:19:45;;;;;;;40.12;18.52;;;;;;;-0.93;92.09;99271.76;1667552;84;21754;-39
2022/02/02 06:22:40;;;;;;;45.28;18.75;;;;;;;-0.79;92.27;99269.58;1683145;83;21030;-39
2022/02/02 06:26:07;;;;;;;48.92;22.07;;;;;;;-0.73;92.05;99275.30;1661151;83;21128;-39
2022/02/02 06:41:11;;;;;;;36.20;15.53;;;;;;;-0.18;91.63;99258.40;1677733;83;21107;-39
2022/02/02 06:44:35;;;;;;;32.45;15.70;;;;;;;-0.14;91.40;99258.94;1679513;83;21087;-38
2022/02/02 06:47:13;;;;;;;32.63;14.83;;;;;;;-0.09;91.21;99253.51;1665304;84;21455;-47
2022/02/02 06:49:43;;;;;;;24.57;12.78;;;;;;;0.04;91.02;99251.25;1660240;84;21507;-47
2022/02/02 06:52:22;;;;;;;24.72;13.28;;;;;;;0.14;90.65;99246.80;1659152;84;20988;-47
2022/02/02 06:55:00;;;;;;;22.65;12.88;;;;;;;0.20;90.12;99247.81;1662967;84;21031;-39
2022/02/02 06:57:45;;;;;;;23.18;12.73;;;;;;;0.25;89.66;99249.22;1666258;84;21275;-39
2022/02/02 07:00:21;;;;;;;20.85;11.65;;;;;;;0.32;89.29;99250.23;1650718;84;21073;-39
2022/02/02 07:03:02;;;;;;;20.50;11.70;;;;;;;0.39;88.74;99245.67;1659620;84;20998;-38
2022/02/02 07:13:52;;;;;;;22.52;11.80;;;;;;;0.65;86.67;99237.30;1608396;87;21017;-48
2022/02/02 07:27:41;;;;;;;24.27;11.75;;;;;;;0.75;84.13;99239.22;1636483;85;21478;-38
2022/02/02 07:30:43;;;;;;;22.55;11.93;;;;;;;0.79;84.45;99241.90;1633303;85;21025;-38
2022/02/02 07:33:40;;;;;;;20.70;11.30;;;;;;;0.77;84.00;99246.16;1635035;85;21186;-46
2022/02/02 07:36:42;;;;;;;22.07;13.13;;;;;;;0.72;83.70;99244.31;1646184;85;21250;-46
2022/02/02 07:39:46;;;;;;;17.52;11.55;;;;;;;0.63;83.66;99242.80;1641873;85;21175;-47
2022/02/02 07:43:13;;;;;;;23.55;13.40;;;;;;;0.64;83.75;99239.00;1635223;85;21218;-45
2022/02/02 07:50:57;;;;;;;23.98;13.62;;;;;;;0.64;83.57;99239.00;1646428;84;20575;-46
2022/02/02 07:53:57;;;;;;;24.25;13.00;;;;;;;0.66;83.74;99236.45;1651532;84;21058;-48
2022/02/02 07:56:46;;;;;;;23.35;13.90;;;;;;;0.69;83.60;99232.22;1663016;84;21510;-46
2022/02/02 07:59:39;;;;;;;23.50;12.80;;;;;;;0.71;83.66;99227.13;1646197;84;21476;-38
2022/02/02 08:02:08;;;;;;;25.37;14.15;;;;;;;0.80;83.66;99214.44;1665453;84;21218;-39
2022/02/02 08:04:36;;;;;;;30.17;15.32;;;;;;;0.91;83.75;99218.12;1636100;84;21487;-39
2022/02/02 08:07:04;;;;;;;49.53;17.90;;;;;;;1.06;83.51;99219.74;1671221;84;21073;-47
2022/02/02 08:10:05;;;;;;;38.28;17.05;;;;;;;1.23;83.20;99212.36;1631029;84;21009;-37
2022/02/02 08:17:54;;;;;;;28.32;14.45;;;;;;;1.56;82.21;99212.12;1669858;84;21145;-47
2022/02/02 08:24:52;;;;;;;25.30;13.98;;;;;;;1.94;80.98;99205.93;1646605;84;21315;-38
2022/02/02 08:27:46;;;;;;;36.53;19.77;;;;;;;2.06;80.51;99207.00;1665016;84;21022;-38
2022/02/02 08:30:15;;;;;;;25.50;16.30;;;;;;;2.24;80.23;99205.56;1665242;84;21431;-46
2022/02/02 08:32:52;;;;;;;25.95;14.10;;;;;;;2.38;79.86;99199.78;1667134;84;21486;-38
2022/02/02 08:35:19;;;;;;;25.32;14.23;;;;;;;2.55;79.63;99194.88;1663478;84;21125;-47
2022/02/02 08:37:49;;;;;;;25.30;13.90;;;;;;;2.74;79.25;99200.30;1666989;84;21061;-46
2022/02/02 08:40:28;;;;;;;26.33;14.40;;;;;;;2.88;79.00;99195.75;1670215;84;21643;-46
2022/02/02 08:43:01;;;;;;;23.67;14.20;;;;;;;3.05;78.98;99194.67;1666818;84;21058;-46
2022/02/02 08:45:30;;;;;;;30.85;14.35;;;;;;;3.20;78.39;99194.88;1669374;84;21026;-37
2022/02/02 08:48:02;;;;;;;22.85;13.38;;;;;;;3.25;77.77;99197.91;1669775;84;21773;-39
2022/02/02 08:50:40;;;;;;;27.40;14.43;;;;;;;3.31;77.15;99198.02;1666922;83;21432;-48
2022/02/02 08:53:00;;;;;;;23.10;13.15;;;;;;;3.37;77.14;99192.48;1665288;84;21453;-47
2022/02/02 08:55:50;;;;;;;26.80;11.93;;;;;;;3.51;76.43;99187.88;1666699;84;21109;-38
2022/02/02 08:58:19;;;;;;;33.18;12.43;;;;;;;3.60;74.84;99180.23;1635993;86;21537;-48
2022/02/02 09:00:34;;;;;;;24.10;11.05;;;;;;;3.59;73.01;99181.06;1612123;87;21215;-45
2022/02/02 09:05:43;;;;;;;20.08;10.28;;;;;;;3.60;71.20;99173.34;1618465;87;21156;-38
2022/02/02 09:08:12;;;;;;;22.50;9.60;;;;;;;3.57;70.01;99172.00;1618673;87;21088;-46
2022/02/02 09:24:24;;;;;;;;;;;;;;;3.42;70.09;99164.97;1619111;87;21002;-47
2022/02/02 09:36:07;;;;;;;24.50;11.57;;;;;;;3.55;70.00;99152.16;1612584;87;21125;-38
2022/02/02 09:40:05;;;;;;;23.27;10.88;;;;;;;3.54;69.85;99159.45;1618448;87;21009;-38
2022/02/02 09:42:53;;;;;;;26.42;11.90;;;;;;;3.35;69.92;99153.23;1618708;87;21594;-39
2022/02/02 09:45:26;;;;;;;26.85;13.43;;;;;;;3.15;70.29;99148.72;1621418;87;21090;-38
2022/02/02 09:47:58;;;;;;;28.12;14.10;;;;;;;3.01;71.07;99152.83;1622669;87;21069;-47
2022/02/02 09:50:32;;;;;;;39.55;16.12;;;;;;;3.00;71.49;99148.95;1621215;87;21650;-48
2022/02/02 09:52:56;;;;;;;34.80;15.20;;;;;;;3.00;71.72;99145.94;1621823;87;21640;-47
2022/02/02 09:55:46;;;;;;;37.42;15.75;;;;;;;3.05;71.96;99142.98;1622163;87;21653;-47
2022/02/02 09:58:17;;;;;;;32.98;15.63;;;;;;;3.13;72.00;99128.85;1671262;84;20998;-47
2022/02/02 10:23:23;;;;;;;32.50;15.98;;;;;;;3.95;70.88;99097.75;1628666;86;21687;-47
2022/02/02 10:26:26;;;;;;;33.18;14.75;;;;;;;4.38;69.96;99095.00;1617850;86;21068;-38
2022/02/02 10:29:31;;;;;;;31.55;15.78;;;;;;;4.73;68.48;99093.88;1628516;86;21085;-40
2022/02/02 10:32:47;;;;;;;36.15;15.83;;;;;;;4.89;67.54;99087.05;1623848;86;21342;-47
2022/02/02 10:35:40;;;;;;;31.73;15.03;;;;;;;5.09;67.04;99088.39;1628319;86;21113;-47
2022/02/02 10:38:17;;;;;;;37.85;17.02;;;;;;;5.29;66.50;99079.38;1623363;86;21838;-47
2022/02/02 10:41:07;;;;;;;29.02;15.28;;;;;;;5.38;66.08;99075.48;1654426;84;21008;-47
2022/02/02 10:43:47;;;;;;;37.25;16.48;;;;;;;5.48;65.34;99076.38;1666418;84;21561;-46
2022/02/02 10:46:51;;;;;;;36.25;16.73;;;;;;;5.55;65.34;99074.22;1669868;84;21388;-46
2022/02/02 10:49:17;;;;;;;37.67;16.60;;;;;;;5.61;65.16;99067.73;1667209;84;21094;-46
2022/02/02 10:51:46;;;;;;;40.85;19.12;;;;;;;5.63;65.25;99058.23;1655003;85;21574;-47
2022/02/02 10:57:30;;;;;;;39.50;16.37;;;;;;;5.61;65.04;99049.56;1670726;84;21471;-38
2022/02/02 11:08:32;;;;;;;36.42;16.85;;;;;;;5.15;66.68;99055.13;1596562;89;21221;-47
2022/02/02 11:12:15;;;;;;;31.65;14.68;;;;;;;5.06;67.16;99046.92;1612285;87;21137;-47
2022/02/02 11:15:53;;;;;;;34.08;14.23;;;;;;;4.99;67.32;99039.56;1615457;87;21456;-38
2022/02/02 11:19:22;;;;;;;21.42;10.85;;;;;;;4.88;67.65;99039.97;1614998;87;21954;-47
2022/02/02 11:22:54;;;;;;;24.12;10.82;;;;;;;4.74;67.97;99038.60;1601338;87;21369;-47
2022/02/02 11:26:38;;;;;;;18.15;9.55;;;;;;;4.62;68.13;99024.31;1616098;87;21069;-38
2022/02/02 11:29:56;;;;;;;21.40;11.22;;;;;;;4.47;68.26;99026.86;1616347;87;21017;-39
2022/02/02 11:43:40;;;;;;;34.43;15.10;;;;;;;4.34;69.97;99024.63;1607630;87;21035;-46
2022/02/02 11:47:32;;;;;;;35.33;13.08;;;;;;;4.36;69.97;99030.69;1613784;87;21089;-37
2022/02/02 11:50:08;;;;;;;26.48;12.70;;;;;;;4.38;69.56;99030.69;1610595;87;21112;-37
2022/02/02 11:53:22;;;;;;;25.00;13.65;;;;;;;4.38;69.99;99026.81;1623562;86;21088;-37
2022/02/02 11:56:15;;;;;;;36.88;14.85;;;;;;;4.40;70.00;99027.23;1599981;87;21060;-46
2022/02/02 11:58:44;;;;;;;34.45;16.93;;;;;;;4.42;69.94;99030.72;1670430;84;21097;-39
2022/02/02 12:01:45;;;;;;;36.25;17.20;;;;;;;4.49;69.89;99027.29;1652622;84;21153;-38
2022/02/02 12:04:42;;;;;;;30.12;16.65;;;;;;;4.56;69.66;99023.00;1667120;84;21080;-40
2022/02/02 12:07:01;;;;;;;27.55;17.20;;;;;;;4.58;69.80;99011.34;1667396;84;21050;-48
2022/02/02 12:09:46;;;;;;;36.48;18.40;;;;;;;4.65;69.51;99021.75;1665116;84;21499;-47
2022/02/02 12:47:50;;;;;;;43.20;21.48;;;;;;;3.58;73.33;99042.25;1572615;89;21140;-38
2022/02/02 13:02:19;;;;;;;37.15;17.67;;;;;;;3.51;74.22;99045.22;1601626;87;21021;-39
2022/02/02 13:04:56;;;;;;;38.02;19.40;;;;;;;3.44;74.60;99046.89;1612318;87;21091;-47
2022/02/02 13:07:25;;;;;;;30.15;16.85;;;;;;;3.45;74.84;99043.45;1619435;87;21402;-47
2022/02/02 13:09:52;;;;;;;34.85;16.23;;;;;;;3.50;74.85;99040.04;1599762;87;21086;-48
2022/02/02 13:12:53;;;;;;;32.33;16.50;;;;;;;3.51;74.87;99033.58;1598059;87;21474;-40
2022/02/02 13:18:25;;;;;;;29.12;15.03;;;;;;;3.43;75.17;99043.87;1600550;87;21741;-37
2022/02/02 13:21:11;;;;;;;33.05;16.75;;;;;;;3.41;75.58;99044.69;1610281;87;21049;-39
2022/02/02 13:24:03;;;;;;;26.70;15.45;;;;;;;3.42;75.55;99047.31;1614130;87;21355;-40
2022/02/02 13:26:51;;;;;;;27.52;16.35;;;;;;;3.42;75.72;99048.61;1608644;87;21058;-47
2022/02/02 13:43:21;;;;;;;32.75;14.45;;;;;;;3.47;76.45;99052.07;1612092;87;21085;-47
2022/02/02 13:54:02;;;;;;;33.80;15.10;;;;;;;3.14;77.58;99058.25;1614951;87;21010;-39
